createdAt,value
2018-07-10T00:04:51.056Z,61.00
2018-07-10T00:07:37.897Z,61.00
2018-07-10T00:13:08.429Z,61.00
2018-07-10T00:15:38.287Z,61.00
2018-07-10T00:18:07.031Z,60.90
2018-07-10T00:20:35.763Z,61.00
2018-07-10T00:23:04.518Z,61.10
2018-07-10T00:28:01.669Z,60.90
2018-07-10T00:32:58.781Z,60.90
2018-07-10T00:38:07.289Z,61.10
2018-07-10T00:45:34.918Z,61.70
2018-07-10T00:48:03.646Z,61.90
2018-07-10T00:50:32.421Z,61.90
2018-07-10T00:53:01.213Z,61.90
2018-07-10T00:55:29.898Z,62.10
2018-07-10T00:57:59.018Z,62.40
2018-07-10T01:00:31.789Z,63.30
2018-07-10T01:03:00.894Z,63.70
2018-07-10T01:05:30.047Z,64.40
2018-07-10T01:07:59.279Z,64.70
2018-07-10T01:10:27.986Z,64.80
2018-07-10T01:12:56.704Z,65.10
2018-07-10T01:15:26.586Z,65.50
2018-07-10T01:20:24.095Z,65.90
2018-07-10T01:22:53.430Z,66.40
2018-07-10T01:25:22.722Z,66.90
2018-07-10T01:27:51.409Z,67.30
2018-07-10T01:30:20.149Z,68.00
2018-07-10T01:35:17.291Z,68.50
2018-07-10T01:37:46.027Z,68.50
2018-07-10T01:42:43.205Z,69.00
2018-07-10T01:45:12.445Z,69.20
2018-07-10T01:47:41.135Z,69.40
2018-07-10T01:50:09.814Z,69.90
2018-07-10T01:52:38.531Z,71.00
2018-07-10T01:55:07.213Z,72.90
2018-07-10T01:57:35.985Z,75.80
2018-07-10T02:00:04.686Z,78.70
2018-07-10T02:02:33.432Z,79.30
2018-07-10T02:05:02.194Z,78.70
2018-07-10T02:07:31.553Z,78.30
2018-07-10T02:12:29.490Z,78.60
2018-07-10T02:14:58.268Z,80.10
2018-07-10T02:17:26.977Z,80.80
2018-07-10T02:19:55.705Z,81.10
2018-07-10T02:22:24.569Z,81.90
2018-07-10T02:24:53.351Z,82.10
2018-07-10T02:27:22.066Z,81.50
2018-07-10T02:32:20.116Z,81.20
2018-07-10T02:34:48.806Z,81.50
2018-07-10T02:37:17.474Z,80.90
2018-07-10T02:39:46.216Z,81.60
2018-07-10T02:44:43.769Z,81.80
2018-07-10T02:47:12.485Z,81.80
2018-07-10T02:49:41.794Z,82.30
2018-07-10T02:54:42.238Z,82.20
2018-07-10T02:57:11.932Z,82.00
2018-07-10T03:02:18.643Z,82.30
2018-07-10T03:04:47.842Z,82.60
2018-07-10T03:07:18.110Z,81.50
2018-07-10T03:09:47.757Z,82.00
2018-07-10T03:12:16.475Z,81.90
2018-07-10T03:17:16.837Z,82.10
2018-07-10T03:19:45.584Z,82.80
2018-07-10T03:22:15.514Z,83.10
2018-07-10T03:24:44.541Z,83.10
2018-07-10T03:27:13.256Z,83.70
2018-07-10T03:29:41.960Z,83.90
2018-07-10T03:32:10.747Z,83.80
2018-07-10T03:34:39.918Z,83.40
2018-07-10T03:37:08.785Z,84.00
2018-07-10T03:39:39.557Z,84.30
2018-07-10T03:44:36.711Z,82.90
2018-07-10T03:47:05.640Z,83.30
2018-07-10T03:49:34.371Z,83.20
2018-07-10T03:52:03.603Z,82.50
2018-07-10T03:57:02.555Z,82.00
2018-07-10T03:59:33.413Z,81.30
2018-07-10T04:02:02.159Z,80.60
2018-07-10T04:04:30.874Z,79.30
2018-07-10T04:06:59.638Z,79.00
2018-07-10T04:09:28.321Z,79.00
2018-07-10T04:11:57.063Z,78.90
2018-07-10T04:14:26.266Z,78.40
2018-07-10T04:16:54.951Z,77.30
2018-07-10T04:19:23.859Z,78.30
2018-07-10T04:24:21.263Z,76.70
2018-07-10T04:27:00.443Z,77.00
2018-07-10T04:30:38.009Z,76.80
2018-07-10T04:33:06.721Z,76.40
2018-07-10T04:35:35.872Z,76.30
2018-07-10T04:38:04.773Z,76.00
2018-07-10T04:40:33.817Z,75.40
2018-07-10T04:43:07.038Z,75.10
2018-07-10T04:45:43.997Z,75.10
2018-07-10T04:50:50.317Z,73.90
2018-07-10T04:58:23.438Z,74.30
2018-07-10T05:03:36.373Z,73.50
2018-07-10T05:06:06.671Z,76.30
2018-07-10T05:08:36.055Z,77.30
2018-07-10T05:11:04.831Z,77.70
2018-07-10T05:13:33.582Z,77.90
2018-07-10T05:16:04.290Z,77.90
2018-07-10T05:18:33.904Z,77.20
2018-07-10T05:26:02.388Z,79.00
2018-07-10T05:28:32.150Z,79.70
2018-07-10T05:31:01.910Z,80.00
2018-07-10T05:33:30.665Z,80.80
2018-07-10T05:36:00.955Z,81.50
2018-07-10T05:38:35.054Z,82.60
2018-07-10T05:41:04.306Z,83.30
2018-07-10T05:43:38.148Z,83.30
2018-07-10T05:46:06.885Z,84.10
2018-07-10T05:48:36.047Z,84.00
2018-07-10T05:51:04.755Z,85.70
2018-07-10T05:53:33.605Z,87.40
2018-07-10T05:58:30.791Z,90.00
2018-07-10T06:00:59.588Z,89.90
2018-07-10T06:03:28.302Z,88.70
2018-07-10T06:05:57.038Z,87.90
2018-07-10T06:10:54.138Z,87.80
2018-07-10T06:13:22.831Z,87.60
2018-07-10T06:15:51.541Z,87.00
2018-07-10T06:20:48.682Z,86.40
2018-07-10T06:23:20.134Z,86.60
2018-07-10T06:25:49.244Z,86.20
2018-07-10T06:28:25.311Z,86.10
2018-07-10T06:30:54.144Z,87.20
2018-07-10T06:33:25.578Z,88.50
2018-07-10T06:38:22.684Z,89.10
2018-07-10T06:40:51.710Z,88.10
2018-07-10T06:43:24.357Z,87.90
2018-07-10T06:48:22.320Z,86.50
2018-07-10T06:53:22.255Z,86.60
2018-07-10T06:55:53.605Z,87.60
2018-07-10T06:58:24.117Z,90.70
2018-07-10T07:03:23.735Z,91.90
2018-07-10T07:05:52.565Z,91.20
2018-07-10T07:08:23.500Z,91.40
2018-07-10T07:10:52.405Z,90.60
2018-07-10T07:13:21.103Z,90.60
2018-07-10T07:15:49.811Z,90.20
2018-07-10T07:18:18.494Z,90.50
2018-07-10T07:20:47.282Z,90.40
2018-07-10T07:23:16.038Z,90.40
2018-07-10T07:25:45.218Z,90.40
2018-07-10T07:28:14.018Z,90.10
2018-07-10T07:30:42.754Z,90.10
2018-07-10T07:33:11.506Z,90.10
2018-07-10T07:35:40.202Z,90.00
2018-07-10T07:38:08.874Z,89.90
2018-07-10T07:40:37.569Z,89.40
2018-07-10T07:43:06.334Z,89.70
2018-07-10T07:45:35.032Z,88.90
2018-07-10T07:48:03.737Z,89.00
2018-07-10T07:50:32.437Z,88.70
2018-07-10T07:53:01.178Z,89.10
2018-07-10T07:55:29.993Z,89.50
2018-07-10T07:57:58.706Z,88.30
2018-07-10T08:00:27.440Z,88.40
2018-07-10T08:02:56.155Z,88.40
2018-07-10T08:05:25.190Z,89.20
2018-07-10T08:07:54.280Z,88.40
2018-07-10T08:12:51.466Z,87.90
2018-07-10T08:15:20.239Z,88.00
2018-07-10T08:17:49.023Z,87.60
2018-07-10T08:20:19.189Z,87.70
2018-07-10T08:32:43.896Z,86.60
2018-07-10T08:37:41.270Z,86.40
2018-07-10T08:40:09.982Z,86.10
2018-07-10T08:45:07.115Z,85.80
2018-07-10T08:47:35.821Z,85.80
2018-07-10T08:50:04.548Z,85.70
2018-07-10T08:52:33.272Z,85.40
2018-07-10T08:55:02.025Z,85.10
2018-07-10T08:57:30.741Z,85.60
2018-07-10T09:02:28.768Z,88.50
2018-07-10T09:04:57.639Z,87.00
2018-07-10T09:07:26.918Z,88.20
2018-07-10T09:09:55.638Z,87.60
2018-07-10T09:12:24.318Z,88.00
2018-07-10T09:14:53.005Z,89.60
2018-07-10T09:17:22.237Z,90.10
2018-07-10T09:19:50.914Z,89.80
2018-07-10T09:24:52.018Z,89.50
2018-07-10T09:27:21.841Z,90.60
2018-07-10T09:29:50.858Z,90.70
2018-07-10T09:34:54.970Z,89.90
2018-07-10T09:37:29.283Z,88.50
2018-07-10T09:40:03.859Z,88.60
2018-07-10T09:45:00.982Z,90.10
2018-07-10T09:47:30.845Z,88.50
2018-07-10T09:52:36.833Z,89.50
2018-07-10T09:55:05.564Z,89.60
2018-07-10T09:57:34.237Z,88.70
2018-07-10T10:00:03.628Z,87.10
2018-07-10T10:02:33.476Z,87.10
2018-07-10T10:05:04.832Z,89.80
2018-07-10T10:07:33.490Z,89.00
2018-07-10T10:10:03.416Z,89.40
2018-07-10T10:12:33.533Z,89.60
2018-07-10T10:15:02.237Z,89.50
2018-07-10T10:17:31.546Z,90.20
2018-07-10T10:22:30.946Z,91.20
2018-07-10T10:25:00.626Z,92.60
2018-07-10T10:27:30.038Z,93.10
2018-07-10T10:29:59.778Z,93.40
2018-07-10T10:32:28.586Z,92.90
2018-07-10T10:34:57.633Z,93.00
2018-07-10T10:37:26.473Z,92.50
2018-07-10T10:39:55.961Z,92.20
2018-07-10T10:42:26.129Z,92.20
2018-07-10T10:44:57.323Z,92.00
2018-07-10T10:47:26.005Z,91.60
2018-07-10T10:52:24.903Z,91.60
2018-07-10T10:54:53.622Z,91.40
2018-07-10T10:57:23.272Z,91.50
2018-07-10T10:59:52.569Z,91.70
2018-07-10T11:02:22.050Z,91.00
2018-07-10T11:04:52.409Z,90.90
2018-07-10T11:07:21.628Z,91.40
2018-07-10T11:09:50.497Z,91.60
2018-07-10T11:12:20.258Z,91.40
2018-07-10T11:19:59.743Z,92.00
2018-07-10T11:22:28.473Z,92.60
2018-07-10T11:25:07.305Z,91.80
2018-07-10T11:27:47.870Z,91.40
2018-07-10T11:30:16.589Z,91.40
2018-07-10T11:35:13.878Z,91.40
2018-07-10T11:37:42.570Z,91.50
2018-07-10T11:40:11.349Z,91.70
2018-07-10T11:42:40.142Z,91.80
2018-07-10T11:45:09.003Z,92.40
2018-07-10T11:50:06.093Z,91.60
2018-07-10T11:52:34.830Z,91.70
2018-07-10T11:55:03.534Z,91.70
2018-07-10T11:57:32.217Z,91.90
2018-07-10T12:07:35.592Z,97.10
2018-07-10T12:10:16.109Z,97.30
2018-07-10T12:12:45.006Z,98.80
2018-07-10T12:15:14.113Z,99.20
2018-07-10T12:22:54.683Z,99.90
2018-07-10T12:25:25.942Z,99.90
2018-07-10T12:30:23.453Z,99.90
2018-07-10T12:35:20.541Z,99.90
2018-07-10T12:37:54.205Z,99.90
2018-07-10T12:40:22.912Z,99.90
2018-07-10T12:42:52.417Z,99.90
2018-07-10T12:48:06.596Z,99.90
2018-07-10T12:50:35.273Z,99.90
2018-07-10T12:53:04.074Z,99.90
2018-07-10T12:55:34.582Z,99.90
2018-07-10T12:58:03.449Z,99.90
2018-07-10T13:03:01.685Z,99.90
2018-07-10T13:06:13.352Z,99.90
2018-07-10T13:11:26.714Z,99.90
2018-07-10T13:13:55.450Z,99.90
2018-07-10T13:16:24.117Z,99.90
2018-07-10T13:18:52.897Z,99.90
2018-07-10T13:24:11.258Z,99.90
2018-07-10T13:26:39.949Z,99.90
2018-07-10T13:29:08.629Z,99.90
2018-07-10T13:31:37.377Z,99.90
2018-07-10T13:34:06.121Z,99.90
2018-07-10T13:39:04.858Z,99.90
2018-07-10T13:41:34.837Z,99.90
2018-07-10T13:44:03.538Z,99.90
2018-07-10T13:53:58.177Z,99.90
2018-07-10T13:56:26.924Z,99.90
2018-07-10T13:58:56.357Z,99.90
2018-07-10T14:01:25.048Z,99.90
2018-07-10T14:03:53.784Z,99.90
2018-07-10T14:06:22.499Z,99.90
2018-07-10T14:08:51.233Z,99.90
2018-07-10T14:11:19.945Z,99.90
2018-07-10T14:13:48.680Z,99.90
2018-07-10T14:16:17.345Z,99.90
2018-07-10T14:18:46.406Z,99.90
2018-07-10T14:21:15.199Z,99.90
2018-07-10T14:23:44.002Z,99.90
2018-07-10T14:26:12.783Z,99.90
2018-07-10T14:28:41.723Z,99.90
2018-07-10T14:31:10.429Z,99.90
2018-07-10T14:36:07.600Z,99.90
2018-07-10T14:38:38.468Z,99.90
2018-07-10T14:41:07.885Z,99.90
2018-07-10T14:43:41.230Z,99.90
2018-07-10T14:46:15.196Z,99.90
2018-07-10T14:48:47.870Z,99.90
2018-07-10T14:51:22.223Z,99.90
2018-07-10T14:53:50.927Z,99.90
2018-07-10T14:58:48.034Z,99.90
2018-07-10T15:01:16.913Z,99.90
2018-07-10T15:03:45.620Z,99.90
2018-07-10T15:06:14.321Z,99.90
2018-07-10T15:11:11.461Z,99.90
2018-07-10T15:13:51.661Z,99.90
2018-07-10T15:16:20.346Z,99.90
2018-07-10T15:18:50.345Z,99.90
2018-07-10T15:21:20.293Z,99.90
2018-07-10T15:23:49.021Z,99.90
2018-07-10T15:26:18.019Z,99.90
2018-07-10T15:33:43.523Z,99.90
2018-07-10T15:36:12.321Z,99.90
2018-07-10T15:43:38.046Z,99.90
2018-07-10T15:46:06.960Z,99.90
2018-07-10T15:58:30.935Z,99.90
2018-07-10T16:00:59.646Z,99.90
2018-07-10T16:03:28.440Z,99.90
2018-07-10T16:05:57.218Z,99.90
2018-07-10T16:08:25.939Z,99.90
2018-07-10T16:10:59.484Z,99.90
2018-07-10T16:13:29.573Z,99.90
2018-07-10T16:15:58.940Z,99.90
2018-07-10T16:18:28.940Z,99.90
2018-07-10T16:21:01.504Z,99.90
2018-07-10T16:23:31.597Z,99.90
2018-07-10T16:26:07.588Z,99.90
2018-07-10T16:28:40.110Z,99.90
2018-07-10T16:31:12.168Z,99.90
2018-07-10T16:33:40.884Z,99.90
2018-07-10T16:36:09.616Z,99.90
2018-07-10T16:38:40.149Z,99.90
2018-07-10T16:41:15.947Z,99.90
2018-07-10T16:43:45.111Z,99.90
2018-07-10T16:46:15.590Z,99.90
2018-07-10T16:48:48.039Z,99.90
2018-07-10T16:51:28.396Z,99.90
2018-07-10T16:53:59.020Z,99.90
2018-07-10T16:56:27.786Z,99.90
2018-07-10T16:58:57.659Z,99.90
2018-07-10T17:01:27.617Z,99.90
2018-07-10T17:03:58.022Z,99.90
2018-07-10T17:06:27.217Z,99.90
2018-07-10T17:08:55.889Z,99.90
2018-07-10T17:11:24.645Z,99.90
2018-07-10T17:16:28.885Z,99.90
2018-07-10T17:18:59.207Z,99.90
2018-07-10T17:21:30.104Z,99.90
2018-07-10T17:24:00.654Z,99.90
2018-07-10T17:26:29.574Z,99.90
2018-07-10T17:29:00.474Z,99.90
2018-07-10T17:31:29.304Z,99.90
2018-07-10T17:33:58.078Z,99.90
2018-07-10T17:38:59.528Z,99.90
2018-07-10T17:41:31.919Z,99.90
2018-07-10T17:44:01.762Z,99.90
2018-07-10T17:46:31.364Z,99.90
2018-07-10T17:49:00.718Z,99.90
2018-07-10T17:51:29.501Z,99.90
2018-07-10T17:53:58.393Z,99.90
2018-07-10T17:56:27.314Z,99.90
2018-07-10T18:01:24.774Z,99.90
2018-07-10T18:03:53.606Z,99.90
2018-07-10T18:06:22.661Z,99.90
2018-07-10T18:11:19.982Z,99.90
2018-07-10T18:13:48.869Z,99.90
2018-07-10T18:16:17.843Z,99.90
2018-07-10T18:18:46.860Z,99.90
2018-07-10T18:21:15.831Z,99.90
2018-07-10T18:23:45.194Z,99.90
2018-07-10T18:26:14.122Z,99.90
2018-07-10T18:28:43.012Z,99.90
2018-07-10T18:31:12.579Z,99.90
2018-07-10T18:33:41.561Z,99.90
2018-07-10T18:36:11.284Z,99.90
2018-07-10T18:38:40.220Z,99.90
2018-07-10T18:41:09.004Z,99.90
2018-07-10T18:46:06.503Z,99.90
2018-07-10T18:48:35.243Z,99.90
2018-07-10T18:51:04.468Z,99.90
2018-07-10T18:53:33.381Z,99.90
2018-07-10T18:56:02.305Z,99.90
2018-07-10T18:58:34.910Z,99.90
2018-07-10T19:01:12.294Z,99.90
2018-07-10T19:03:44.412Z,99.90
2018-07-10T19:06:14.468Z,99.90
2018-07-10T19:08:44.370Z,99.90
2018-07-10T19:11:18.380Z,99.90
2018-07-10T19:13:47.653Z,99.90
2018-07-10T19:16:19.874Z,99.90
2018-07-10T19:18:50.645Z,99.90
2018-07-10T19:21:24.490Z,99.90
2018-07-10T19:23:54.742Z,99.90
2018-07-10T19:29:04.417Z,99.90
2018-07-10T19:31:33.335Z,99.90
2018-07-10T19:34:02.629Z,99.90
2018-07-10T19:36:31.738Z,99.90
2018-07-10T19:39:02.609Z,99.90
2018-07-10T19:41:31.465Z,99.90
2018-07-10T19:46:30.619Z,99.90
2018-07-10T19:51:28.489Z,99.90
2018-07-10T19:54:01.766Z,99.90
2018-07-10T19:58:58.897Z,99.90
2018-07-10T20:04:43.548Z,99.90
2018-07-10T20:07:25.641Z,99.90
2018-07-10T20:09:56.884Z,99.90
2018-07-10T20:12:50.143Z,99.90
2018-07-10T20:15:26.270Z,99.90
2018-07-10T20:18:09.055Z,99.90
2018-07-10T20:20:39.678Z,99.90
2018-07-10T20:23:15.985Z,99.90
2018-07-10T20:26:01.497Z,99.90
2018-07-10T20:28:48.846Z,99.90
2018-07-10T20:32:26.124Z,99.90
2018-07-10T20:35:00.963Z,99.90
2018-07-10T20:37:30.950Z,99.90
2018-07-10T20:40:00.502Z,99.90
2018-07-10T20:42:33.972Z,99.90
2018-07-10T20:45:06.117Z,99.90
2018-07-10T20:47:42.323Z,99.90
2018-07-10T20:50:11.037Z,99.90
2018-07-10T20:52:51.328Z,99.90
2018-07-10T20:55:20.094Z,99.90
2018-07-10T20:57:58.655Z,99.90
2018-07-10T21:03:05.587Z,99.90
2018-07-10T21:05:38.574Z,99.90
2018-07-10T21:08:12.367Z,99.90
2018-07-10T21:13:24.577Z,99.90
2018-07-10T21:16:30.918Z,99.90
2018-07-10T21:19:07.941Z,99.90
2018-07-10T21:23:04.205Z,99.90
2018-07-10T21:25:39.850Z,99.90
2018-07-10T21:30:55.946Z,99.90
2018-07-10T21:33:38.020Z,99.90
2018-07-10T21:36:13.516Z,99.90
2018-07-10T21:39:12.564Z,99.90
2018-07-10T21:41:56.665Z,99.90
2018-07-10T21:44:35.708Z,99.90
2018-07-10T21:47:13.763Z,99.90
2018-07-10T21:49:50.297Z,99.90
2018-07-10T21:52:19.058Z,99.90
2018-07-10T21:54:48.613Z,99.90
2018-07-10T21:59:53.728Z,99.90
2018-07-10T22:02:22.454Z,99.90
2018-07-10T22:04:55.551Z,99.90
2018-07-10T22:07:25.513Z,99.90
2018-07-10T22:09:54.502Z,99.90
2018-07-10T22:12:23.189Z,99.90
2018-07-10T22:14:52.452Z,99.90
2018-07-10T22:19:53.679Z,99.90
2018-07-10T22:22:24.979Z,99.90
2018-07-10T22:24:54.832Z,99.90
2018-07-10T22:27:24.242Z,99.90
2018-07-10T22:30:00.977Z,99.90
2018-07-10T22:32:35.323Z,99.90
2018-07-10T22:35:04.053Z,99.90
2018-07-10T22:37:32.793Z,99.90
2018-07-10T22:40:01.555Z,99.90
2018-07-10T22:42:30.172Z,99.90
2018-07-10T22:44:59.075Z,99.90
2018-07-10T22:47:37.088Z,99.90
2018-07-10T22:52:54.816Z,99.90
2018-07-10T22:55:27.719Z,99.90
2018-07-10T22:58:03.771Z,99.90
2018-07-10T23:00:36.870Z,99.90
2018-07-10T23:03:13.949Z,99.90
2018-07-10T23:08:11.575Z,99.90
2018-07-10T23:10:40.310Z,99.90
2018-07-10T23:13:09.369Z,99.90
2018-07-10T23:15:38.153Z,99.90
2018-07-10T23:25:32.111Z,99.90
2018-07-10T23:28:03.879Z,99.90
2018-07-10T23:30:37.687Z,99.90
2018-07-10T23:33:09.755Z,99.90
2018-07-10T23:35:39.553Z,99.90
2018-07-10T23:38:33.534Z,99.90
2018-07-10T23:41:02.497Z,99.90
2018-07-10T23:43:38.307Z,99.90
2018-07-10T23:46:11.317Z,99.90
2018-07-10T23:48:40.063Z,99.90
2018-07-10T23:51:08.890Z,99.90
2018-07-10T23:53:44.584Z,99.90
2018-07-10T23:56:13.340Z,99.90
2018-07-10T23:58:42.038Z,99.90
